sensor_id;sensor_type;location;lat;lon;timestamp;P1;durP1;ratioP1;P2;durP2;ratioP2
43877;SDS011;29815;48.184;11.268;2022-08-19T00:00:26;10.85;;;9.75;;
43877;SDS011;29815;48.184;11.268;2022-08-19T00:02:57;11.35;;;10.23;;
43877;SDS011;29815;48.184;11.268;2022-08-19T00:05:26;12.32;;;11.02;;
43877;SDS011;29815;48.184;11.268;2022-08-19T00:07:56;13.52;;;10.52;;
43877;SDS011;29815;48.184;11.268;2022-08-19T00:10:27;12.88;;;11.35;;
43877;SDS011;29815;48.184;11.268;2022-08-19T00:12:57;12.38;;;11.13;;
43877;SDS011;29815;48.184;11.268;2022-08-19T00:15:26;14.15;;;11.85;;
43877;SDS011;29815;48.184;11.268;2022-08-19T00:17:56;13.27;;;11.90;;
43877;SDS011;29815;48.184;11.268;2022-08-19T00:20:25;15.20;;;12.82;;
43877;SDS011;29815;48.184;11.268;2022-08-19T00:22:55;14.02;;;12.55;;
43877;SDS011;29815;48.184;11.268;2022-08-19T00:25:26;13.45;;;12.05;;
43877;SDS011;29815;48.184;11.268;2022-08-19T00:27:57;14.55;;;13.05;;
43877;SDS011;29815;48.184;11.268;2022-08-19T00:30:27;14.88;;;13.38;;
43877;SDS011;29815;48.184;11.268;2022-08-19T00:32:57;14.43;;;12.93;;
43877;SDS011;29815;48.184;11.268;2022-08-19T00:35:27;14.95;;;13.38;;
43877;SDS011;29815;48.184;11.268;2022-08-19T00:37:57;14.05;;;12.13;;
43877;SDS011;29815;48.184;11.268;2022-08-19T00:40:28;14.98;;;13.45;;
43877;SDS011;29815;48.184;11.268;2022-08-19T00:42:58;15.93;;;14.23;;
43877;SDS011;29815;48.184;11.268;2022-08-19T00:45:28;14.60;;;13.15;;
43877;SDS011;29815;48.184;11.268;2022-08-19T00:48:03;14.95;;;13.38;;
43877;SDS011;29815;48.184;11.268;2022-08-19T00:50:41;14.68;;;13.05;;
43877;SDS011;29815;48.184;11.268;2022-08-19T00:53:20;14.70;;;13.20;;
43877;SDS011;29815;48.184;11.268;2022-08-19T00:55:55;16.00;;;14.30;;
43877;SDS011;29815;48.184;11.268;2022-08-19T00:58:30;14.60;;;12.30;;
43877;SDS011;29815;48.184;11.268;2022-08-19T01:01:03;15.65;;;13.18;;
43877;SDS011;29815;48.184;11.268;2022-08-19T01:03:35;15.88;;;13.25;;
43877;SDS011;29815;48.184;11.268;2022-08-19T01:06:24;16.13;;;14.52;;
43877;SDS011;29815;48.184;11.268;2022-08-19T01:08:54;14.50;;;13.00;;
43877;SDS011;29815;48.184;11.268;2022-08-19T01:11:25;16.13;;;14.40;;
43877;SDS011;29815;48.184;11.268;2022-08-19T01:13:56;15.23;;;13.65;;
43877;SDS011;29815;48.184;11.268;2022-08-19T01:16:27;15.65;;;13.55;;
43877;SDS011;29815;48.184;11.268;2022-08-19T01:18:58;14.25;;;12.75;;
43877;SDS011;29815;48.184;11.268;2022-08-19T01:21:30;16.45;;;13.30;;
43877;SDS011;29815;48.184;11.268;2022-08-19T01:24:07;15.10;;;13.52;;
43877;SDS011;29815;48.184;11.268;2022-08-19T01:26:38;15.02;;;13.35;;
43877;SDS011;29815;48.184;11.268;2022-08-19T01:29:13;17.58;;;14.10;;
43877;SDS011;29815;48.184;11.268;2022-08-19T01:31:43;18.35;;;14.55;;
43877;SDS011;29815;48.184;11.268;2022-08-19T01:34:12;16.50;;;14.35;;
43877;SDS011;29815;48.184;11.268;2022-08-19T01:36:43;16.60;;;14.80;;
43877;SDS011;29815;48.184;11.268;2022-08-19T01:39:19;15.07;;;13.50;;
43877;SDS011;29815;48.184;11.268;2022-08-19T01:41:52;19.00;;;16.85;;
43877;SDS011;29815;48.184;11.268;2022-08-19T01:44:22;16.17;;;14.48;;
43877;SDS011;29815;48.184;11.268;2022-08-19T01:46:52;17.00;;;15.25;;
43877;SDS011;29815;48.184;11.268;2022-08-19T01:49:23;16.52;;;14.77;;
43877;SDS011;29815;48.184;11.268;2022-08-19T01:51:54;15.82;;;13.93;;
43877;SDS011;29815;48.184;11.268;2022-08-19T01:54:27;17.05;;;15.27;;
43877;SDS011;29815;48.184;11.268;2022-08-19T01:56:59;16.27;;;13.25;;
43877;SDS011;29815;48.184;11.268;2022-08-19T01:59:34;14.35;;;12.60;;
43877;SDS011;29815;48.184;11.268;2022-08-19T02:02:04;15.13;;;13.55;;
43877;SDS011;29815;48.184;11.268;2022-08-19T02:04:35;15.45;;;13.85;;
43877;SDS011;29815;48.184;11.268;2022-08-19T02:07:06;15.00;;;13.43;;
43877;SDS011;29815;48.184;11.268;2022-08-19T02:09:38;15.75;;;14.15;;
43877;SDS011;29815;48.184;11.268;2022-08-19T02:12:07;14.88;;;13.38;;
43877;SDS011;29815;48.184;11.268;2022-08-19T02:14:37;15.10;;;13.60;;
43877;SDS011;29815;48.184;11.268;2022-08-19T02:17:06;14.35;;;12.90;;
43877;SDS011;29815;48.184;11.268;2022-08-19T02:19:36;15.73;;;14.10;;
43877;SDS011;29815;48.184;11.268;2022-08-19T02:22:08;14.05;;;12.65;;
43877;SDS011;29815;48.184;11.268;2022-08-19T02:24:39;13.57;;;12.18;;
43877;SDS011;29815;48.184;11.268;2022-08-19T02:27:09;13.48;;;12.02;;
43877;SDS011;29815;48.184;11.268;2022-08-19T02:29:38;13.23;;;11.85;;
43877;SDS011;29815;48.184;11.268;2022-08-19T02:32:08;13.18;;;11.82;;
43877;SDS011;29815;48.184;11.268;2022-08-19T02:34:37;14.70;;;12.07;;
43877;SDS011;29815;48.184;11.268;2022-08-19T02:37:07;14.27;;;12.20;;
43877;SDS011;29815;48.184;11.268;2022-08-19T02:40:03;12.50;;;11.20;;
43877;SDS011;29815;48.184;11.268;2022-08-19T02:42:39;14.10;;;12.15;;
43877;SDS011;29815;48.184;11.268;2022-08-19T02:45:10;12.30;;;11.02;;
43877;SDS011;29815;48.184;11.268;2022-08-19T02:47:40;13.82;;;11.27;;
43877;SDS011;29815;48.184;11.268;2022-08-19T02:50:10;12.00;;;10.77;;
43877;SDS011;29815;48.184;11.268;2022-08-19T02:52:40;11.60;;;9.88;;
43877;SDS011;29815;48.184;11.268;2022-08-19T02:55:11;13.02;;;11.27;;
43877;SDS011;29815;48.184;11.268;2022-08-19T02:57:41;12.55;;;11.18;;
43877;SDS011;29815;48.184;11.268;2022-08-19T03:00:11;11.63;;;10.45;;
43877;SDS011;29815;48.184;11.268;2022-08-19T03:02:41;11.05;;;9.93;;
43877;SDS011;29815;48.184;11.268;2022-08-19T03:05:11;12.88;;;11.52;;
43877;SDS011;29815;48.184;11.268;2022-08-19T03:07:40;12.63;;;11.30;;
43877;SDS011;29815;48.184;11.268;2022-08-19T03:10:12;15.13;;;12.32;;
43877;SDS011;29815;48.184;11.268;2022-08-19T03:12:41;14.82;;;13.23;;
43877;SDS011;29815;48.184;11.268;2022-08-19T03:15:12;13.27;;;11.88;;
43877;SDS011;29815;48.184;11.268;2022-08-19T03:17:42;14.00;;;11.43;;
43877;SDS011;29815;48.184;11.268;2022-08-19T03:20:12;14.82;;;12.55;;
43877;SDS011;29815;48.184;11.268;2022-08-19T03:22:41;14.80;;;12.38;;
43877;SDS011;29815;48.184;11.268;2022-08-19T03:25:12;15.38;;;12.90;;
43877;SDS011;29815;48.184;11.268;2022-08-19T03:27:43;18.27;;;13.23;;
43877;SDS011;29815;48.184;11.268;2022-08-19T03:30:16;16.70;;;14.93;;
43877;SDS011;29815;48.184;11.268;2022-08-19T03:32:49;17.10;;;14.40;;
43877;SDS011;29815;48.184;11.268;2022-08-19T03:35:23;15.27;;;13.68;;
43877;SDS011;29815;48.184;11.268;2022-08-19T03:37:53;19.20;;;14.95;;
43877;SDS011;29815;48.184;11.268;2022-08-19T03:40:25;15.82;;;13.75;;
43877;SDS011;29815;48.184;11.268;2022-08-19T03:42:57;17.02;;;15.13;;
43877;SDS011;29815;48.184;11.268;2022-08-19T03:45:26;18.85;;;14.13;;
43877;SDS011;29815;48.184;11.268;2022-08-19T03:47:56;17.23;;;13.60;;
43877;SDS011;29815;48.184;11.268;2022-08-19T03:50:26;16.05;;;14.32;;
43877;SDS011;29815;48.184;11.268;2022-08-19T03:52:56;16.77;;;14.13;;
43877;SDS011;29815;48.184;11.268;2022-08-19T03:55:26;17.38;;;14.50;;
43877;SDS011;29815;48.184;11.268;2022-08-19T03:57:56;15.02;;;13.48;;
43877;SDS011;29815;48.184;11.268;2022-08-19T04:00:26;18.50;;;14.95;;
43877;SDS011;29815;48.184;11.268;2022-08-19T04:02:55;15.13;;;13.52;;
43877;SDS011;29815;48.184;11.268;2022-08-19T04:05:27;16.02;;;14.32;;
43877;SDS011;29815;48.184;11.268;2022-08-19T04:07:57;13.98;;;11.95;;
43877;SDS011;29815;48.184;11.268;2022-08-19T04:10:29;16.38;;;14.65;;
43877;SDS011;29815;48.184;11.268;2022-08-19T04:12:58;16.35;;;14.25;;
43877;SDS011;29815;48.184;11.268;2022-08-19T04:15:28;15.85;;;13.88;;
43877;SDS011;29815;48.184;11.268;2022-08-19T04:18:00;19.55;;;16.70;;
43877;SDS011;29815;48.184;11.268;2022-08-19T04:20:33;15.93;;;14.27;;
43877;SDS011;29815;48.184;11.268;2022-08-19T04:23:13;18.25;;;16.35;;
43877;SDS011;29815;48.184;11.268;2022-08-19T04:25:44;17.35;;;15.50;;
43877;SDS011;29815;48.184;11.268;2022-08-19T04:28:14;20.52;;;16.25;;
43877;SDS011;29815;48.184;11.268;2022-08-19T04:30:44;18.35;;;15.88;;
43877;SDS011;29815;48.184;11.268;2022-08-19T04:33:20;19.17;;;17.02;;
43877;SDS011;29815;48.184;11.268;2022-08-19T04:35:55;19.42;;;17.42;;
43877;SDS011;29815;48.184;11.268;2022-08-19T04:38:25;19.38;;;17.42;;
43877;SDS011;29815;48.184;11.268;2022-08-19T04:40:56;22.83;;;20.35;;
43877;SDS011;29815;48.184;11.268;2022-08-19T04:43:44;23.63;;;19.42;;
43877;SDS011;29815;48.184;11.268;2022-08-19T04:46:16;21.38;;;19.17;;
43877;SDS011;29815;48.184;11.268;2022-08-19T04:49:07;22.65;;;20.25;;
43877;SDS011;29815;48.184;11.268;2022-08-19T04:51:40;24.23;;;21.55;;
43877;SDS011;29815;48.184;11.268;2022-08-19T04:54:14;25.98;;;23.38;;
43877;SDS011;29815;48.184;11.268;2022-08-19T04:57:06;25.35;;;22.52;;
43877;SDS011;29815;48.184;11.268;2022-08-19T04:59:38;27.35;;;24.52;;
43877;SDS011;29815;48.184;11.268;2022-08-19T05:02:08;26.77;;;23.98;;
43877;SDS011;29815;48.184;11.268;2022-08-19T05:04:38;28.52;;;25.55;;
43877;SDS011;29815;48.184;11.268;2022-08-19T05:07:07;26.17;;;23.45;;
43877;SDS011;29815;48.184;11.268;2022-08-19T05:09:37;24.50;;;21.55;;
43877;SDS011;29815;48.184;11.268;2022-08-19T05:12:26;28.50;;;24.25;;
43877;SDS011;29815;48.184;11.268;2022-08-19T05:14:57;25.75;;;23.05;;
43877;SDS011;29815;48.184;11.268;2022-08-19T05:17:28;26.70;;;23.33;;
43877;SDS011;29815;48.184;11.268;2022-08-19T05:20:07;24.05;;;21.30;;
43877;SDS011;29815;48.184;11.268;2022-08-19T05:22:56;25.13;;;22.52;;
43877;SDS011;29815;48.184;11.268;2022-08-19T05:25:25;27.85;;;24.65;;
43877;SDS011;29815;48.184;11.268;2022-08-19T05:27:56;26.73;;;22.80;;
43877;SDS011;29815;48.184;11.268;2022-08-19T05:30:26;24.77;;;22.08;;
43877;SDS011;29815;48.184;11.268;2022-08-19T05:33:13;26.95;;;23.60;;
43877;SDS011;29815;48.184;11.268;2022-08-19T05:35:43;26.40;;;22.88;;
43877;SDS011;29815;48.184;11.268;2022-08-19T05:38:13;26.05;;;22.63;;
43877;SDS011;29815;48.184;11.268;2022-08-19T05:40:43;23.17;;;20.75;;
43877;SDS011;29815;48.184;11.268;2022-08-19T05:43:18;24.05;;;21.55;;
43877;SDS011;29815;48.184;11.268;2022-08-19T05:45:47;24.63;;;21.80;;
43877;SDS011;29815;48.184;11.268;2022-08-19T05:48:18;26.25;;;23.45;;
43877;SDS011;29815;48.184;11.268;2022-08-19T05:50:47;26.95;;;24.08;;
43877;SDS011;29815;48.184;11.268;2022-08-19T05:53:18;29.25;;;24.88;;
43877;SDS011;29815;48.184;11.268;2022-08-19T05:55:48;26.48;;;23.77;;
43877;SDS011;29815;48.184;11.268;2022-08-19T05:58:19;25.08;;;22.13;;
43877;SDS011;29815;48.184;11.268;2022-08-19T06:00:54;29.67;;;26.48;;
43877;SDS011;29815;48.184;11.268;2022-08-19T06:03:24;29.83;;;26.50;;
43877;SDS011;29815;48.184;11.268;2022-08-19T06:05:54;27.15;;;24.15;;
43877;SDS011;29815;48.184;11.268;2022-08-19T06:08:26;31.02;;;26.38;;
43877;SDS011;29815;48.184;11.268;2022-08-19T06:11:14;30.42;;;26.15;;
43877;SDS011;29815;48.184;11.268;2022-08-19T06:13:51;30.52;;;27.23;;
43877;SDS011;29815;48.184;11.268;2022-08-19T06:16:27;30.52;;;27.25;;
43877;SDS011;29815;48.184;11.268;2022-08-19T06:19:03;30.48;;;27.15;;
43877;SDS011;29815;48.184;11.268;2022-08-19T06:21:37;29.63;;;25.73;;
43877;SDS011;29815;48.184;11.268;2022-08-19T06:24:11;32.95;;;29.08;;
43877;SDS011;29815;48.184;11.268;2022-08-19T06:26:45;31.17;;;27.80;;
43877;SDS011;29815;48.184;11.268;2022-08-19T06:29:21;28.90;;;25.80;;
43877;SDS011;29815;48.184;11.268;2022-08-19T06:31:54;30.45;;;26.85;;
43877;SDS011;29815;48.184;11.268;2022-08-19T06:36:59;31.88;;;28.48;;
43877;SDS011;29815;48.184;11.268;2022-08-19T06:39:31;27.27;;;24.43;;
43877;SDS011;29815;48.184;11.268;2022-08-19T06:42:06;29.08;;;25.83;;
43877;SDS011;29815;48.184;11.268;2022-08-19T06:44:40;30.65;;;27.35;;
43877;SDS011;29815;48.184;11.268;2022-08-19T06:47:16;32.50;;;28.08;;
43877;SDS011;29815;48.184;11.268;2022-08-19T06:49:53;38.85;;;33.15;;
43877;SDS011;29815;48.184;11.268;2022-08-19T06:52:30;34.95;;;29.13;;
43877;SDS011;29815;48.184;11.268;2022-08-19T06:55:12;34.13;;;28.73;;
43877;SDS011;29815;48.184;11.268;2022-08-19T07:00:16;33.92;;;30.25;;
43877;SDS011;29815;48.184;11.268;2022-08-19T07:02:46;39.92;;;32.28;;
43877;SDS011;29815;48.184;11.268;2022-08-19T07:05:25;39.97;;;32.83;;
43877;SDS011;29815;48.184;11.268;2022-08-19T07:07:55;39.00;;;31.38;;
43877;SDS011;29815;48.184;11.268;2022-08-19T07:10:31;38.58;;;32.15;;
43877;SDS011;29815;48.184;11.268;2022-08-19T07:13:02;38.30;;;30.90;;
43877;SDS011;29815;48.184;11.268;2022-08-19T07:15:34;40.85;;;33.38;;
43877;SDS011;29815;48.184;11.268;2022-08-19T07:18:06;38.08;;;33.60;;
43877;SDS011;29815;48.184;11.268;2022-08-19T07:20:38;39.80;;;32.40;;
43877;SDS011;29815;48.184;11.268;2022-08-19T07:23:10;40.03;;;33.93;;
43877;SDS011;29815;48.184;11.268;2022-08-19T07:25:42;39.45;;;32.42;;
43877;SDS011;29815;48.184;11.268;2022-08-19T07:28:19;38.55;;;32.30;;
43877;SDS011;29815;48.184;11.268;2022-08-19T07:30:52;35.97;;;30.33;;
43877;SDS011;29815;48.184;11.268;2022-08-19T07:33:22;40.95;;;33.33;;
43877;SDS011;29815;48.184;11.268;2022-08-19T07:35:54;38.28;;;31.50;;
43877;SDS011;29815;48.184;11.268;2022-08-19T07:38:24;38.33;;;32.90;;
43877;SDS011;29815;48.184;11.268;2022-08-19T07:40:53;45.63;;;36.08;;
43877;SDS011;29815;48.184;11.268;2022-08-19T07:43:23;42.05;;;35.30;;
43877;SDS011;29815;48.184;11.268;2022-08-19T07:46:03;41.35;;;34.53;;
43877;SDS011;29815;48.184;11.268;2022-08-19T07:48:32;45.20;;;34.22;;
43877;SDS011;29815;48.184;11.268;2022-08-19T07:51:03;42.92;;;34.38;;
43877;SDS011;29815;48.184;11.268;2022-08-19T07:53:41;40.65;;;34.38;;
43877;SDS011;29815;48.184;11.268;2022-08-19T07:56:12;39.92;;;34.08;;
43877;SDS011;29815;48.184;11.268;2022-08-19T07:58:43;39.30;;;33.13;;
43877;SDS011;29815;48.184;11.268;2022-08-19T08:01:18;38.97;;;32.25;;
43877;SDS011;29815;48.184;11.268;2022-08-19T08:03:52;37.72;;;32.63;;
43877;SDS011;29815;48.184;11.268;2022-08-19T08:06:42;43.03;;;33.97;;
43877;SDS011;29815;48.184;11.268;2022-08-19T08:09:30;44.35;;;36.47;;
43877;SDS011;29815;48.184;11.268;2022-08-19T08:12:07;45.60;;;35.78;;
43877;SDS011;29815;48.184;11.268;2022-08-19T08:15:03;44.55;;;35.70;;
43877;SDS011;29815;48.184;11.268;2022-08-19T08:17:40;40.83;;;33.65;;
43877;SDS011;29815;48.184;11.268;2022-08-19T08:20:16;41.85;;;34.20;;
43877;SDS011;29815;48.184;11.268;2022-08-19T08:22:47;44.75;;;36.60;;
43877;SDS011;29815;48.184;11.268;2022-08-19T08:25:35;40.58;;;33.58;;
43877;SDS011;29815;48.184;11.268;2022-08-19T08:28:05;38.53;;;32.85;;
43877;SDS011;29815;48.184;11.268;2022-08-19T08:30:43;38.50;;;32.30;;
43877;SDS011;29815;48.184;11.268;2022-08-19T08:33:18;41.00;;;33.17;;
43877;SDS011;29815;48.184;11.268;2022-08-19T08:36:01;39.92;;;32.88;;
43877;SDS011;29815;48.184;11.268;2022-08-19T08:38:32;43.63;;;35.67;;
43877;SDS011;29815;48.184;11.268;2022-08-19T08:41:09;41.13;;;34.05;;
43877;SDS011;29815;48.184;11.268;2022-08-19T08:43:53;46.15;;;35.70;;
43877;SDS011;29815;48.184;11.268;2022-08-19T08:46:25;45.90;;;35.83;;
43877;SDS011;29815;48.184;11.268;2022-08-19T08:49:16;39.00;;;33.55;;
43877;SDS011;29815;48.184;11.268;2022-08-19T08:52:03;43.40;;;37.13;;
43877;SDS011;29815;48.184;11.268;2022-08-19T08:54:42;48.85;;;38.72;;
43877;SDS011;29815;48.184;11.268;2022-08-19T08:57:23;50.78;;;37.85;;
43877;SDS011;29815;48.184;11.268;2022-08-19T09:00:08;47.58;;;40.67;;
43877;SDS011;29815;48.184;11.268;2022-08-19T09:02:48;48.60;;;37.85;;
43877;SDS011;29815;48.184;11.268;2022-08-19T09:05:20;50.45;;;39.53;;
43877;SDS011;29815;48.184;11.268;2022-08-19T09:07:53;45.63;;;37.53;;
43877;SDS011;29815;48.184;11.268;2022-08-19T09:10:35;46.58;;;37.58;;
43877;SDS011;29815;48.184;11.268;2022-08-19T09:13:14;48.70;;;37.67;;
43877;SDS011;29815;48.184;11.268;2022-08-19T09:16:05;47.63;;;37.05;;
43877;SDS011;29815;48.184;11.268;2022-08-19T09:18:41;52.78;;;40.97;;
43877;SDS011;29815;48.184;11.268;2022-08-19T09:21:15;46.83;;;37.78;;
43877;SDS011;29815;48.184;11.268;2022-08-19T09:23:49;50.53;;;40.40;;
43877;SDS011;29815;48.184;11.268;2022-08-19T09:26:19;56.47;;;41.33;;
43877;SDS011;29815;48.184;11.268;2022-08-19T09:29:11;48.97;;;37.75;;
43877;SDS011;29815;48.184;11.268;2022-08-19T09:31:44;52.55;;;39.85;;
43877;SDS011;29815;48.184;11.268;2022-08-19T09:34:13;55.42;;;40.50;;
43877;SDS011;29815;48.184;11.268;2022-08-19T09:36:49;47.75;;;37.85;;
43877;SDS011;29815;48.184;11.268;2022-08-19T09:39:21;45.63;;;35.63;;
43877;SDS011;29815;48.184;11.268;2022-08-19T09:41:50;48.40;;;37.35;;
43877;SDS011;29815;48.184;11.268;2022-08-19T09:44:24;47.88;;;37.00;;
43877;SDS011;29815;48.184;11.268;2022-08-19T09:46:54;47.03;;;37.15;;
43877;SDS011;29815;48.184;11.268;2022-08-19T09:49:23;45.67;;;36.50;;
43877;SDS011;29815;48.184;11.268;2022-08-19T09:51:54;42.75;;;33.03;;
43877;SDS011;29815;48.184;11.268;2022-08-19T09:54:24;41.20;;;32.83;;
43877;SDS011;29815;48.184;11.268;2022-08-19T09:56:55;32.22;;;26.98;;
43877;SDS011;29815;48.184;11.268;2022-08-19T09:59:30;28.67;;;24.23;;
43877;SDS011;29815;48.184;11.268;2022-08-19T10:02:01;30.65;;;25.15;;
43877;SDS011;29815;48.184;11.268;2022-08-19T10:04:37;30.80;;;25.98;;
43877;SDS011;29815;48.184;11.268;2022-08-19T10:07:26;30.02;;;23.65;;
43877;SDS011;29815;48.184;11.268;2022-08-19T10:10:03;24.23;;;21.00;;
43877;SDS011;29815;48.184;11.268;2022-08-19T10:12:36;23.48;;;19.90;;
43877;SDS011;29815;48.184;11.268;2022-08-19T10:15:07;21.65;;;16.67;;
43877;SDS011;29815;48.184;11.268;2022-08-19T10:17:40;23.13;;;17.80;;
43877;SDS011;29815;48.184;11.268;2022-08-19T10:20:21;19.30;;;13.55;;
43877;SDS011;29815;48.184;11.268;2022-08-19T10:22:52;10.75;;;9.65;;
43877;SDS011;29815;48.184;11.268;2022-08-19T10:25:21;12.52;;;10.65;;
43877;SDS011;29815;48.184;11.268;2022-08-19T10:27:51;14.15;;;12.55;;
43877;SDS011;29815;48.184;11.268;2022-08-19T10:30:22;13.68;;;12.27;;
43877;SDS011;29815;48.184;11.268;2022-08-19T10:32:52;13.00;;;11.68;;
43877;SDS011;29815;48.184;11.268;2022-08-19T10:35:22;12.23;;;10.95;;
43877;SDS011;29815;48.184;11.268;2022-08-19T10:37:55;11.70;;;10.50;;
43877;SDS011;29815;48.184;11.268;2022-08-19T10:40:28;12.95;;;10.13;;
43877;SDS011;29815;48.184;11.268;2022-08-19T10:42:58;9.73;;;8.63;;
43877;SDS011;29815;48.184;11.268;2022-08-19T10:45:27;9.75;;;8.32;;
43877;SDS011;29815;48.184;11.268;2022-08-19T10:47:57;8.38;;;7.53;;
43877;SDS011;29815;48.184;11.268;2022-08-19T10:50:26;7.55;;;6.75;;
43877;SDS011;29815;48.184;11.268;2022-08-19T10:53:15;8.40;;;7.43;;
43877;SDS011;29815;48.184;11.268;2022-08-19T10:58:33;9.27;;;7.82;;
43877;SDS011;29815;48.184;11.268;2022-08-19T11:01:02;7.30;;;6.60;;
43877;SDS011;29815;48.184;11.268;2022-08-19T11:03:32;6.30;;;5.30;;
43877;SDS011;29815;48.184;11.268;2022-08-19T11:06:28;6.32;;;5.72;;
43877;SDS011;29815;48.184;11.268;2022-08-19T11:09:01;6.65;;;5.25;;
43877;SDS011;29815;48.184;11.268;2022-08-19T11:11:32;4.68;;;4.05;;
43877;SDS011;29815;48.184;11.268;2022-08-19T11:14:09;5.55;;;4.72;;
43877;SDS011;29815;48.184;11.268;2022-08-19T11:16:45;5.20;;;4.25;;
43877;SDS011;29815;48.184;11.268;2022-08-19T11:19:16;5.90;;;4.70;;
43877;SDS011;29815;48.184;11.268;2022-08-19T11:21:47;5.45;;;4.28;;
43877;SDS011;29815;48.184;11.268;2022-08-19T11:24:21;5.05;;;3.90;;
43877;SDS011;29815;48.184;11.268;2022-08-19T11:26:55;5.43;;;4.65;;
43877;SDS011;29815;48.184;11.268;2022-08-19T11:29:32;4.18;;;3.28;;
43877;SDS011;29815;48.184;11.268;2022-08-19T11:32:03;4.18;;;3.45;;
43877;SDS011;29815;48.184;11.268;2022-08-19T11:34:37;3.72;;;3.42;;
43877;SDS011;29815;48.184;11.268;2022-08-19T11:37:07;4.95;;;4.18;;
43877;SDS011;29815;48.184;11.268;2022-08-19T11:39:38;3.95;;;3.08;;
43877;SDS011;29815;48.184;11.268;2022-08-19T11:42:07;3.55;;;3.22;;
43877;SDS011;29815;48.184;11.268;2022-08-19T11:44:55;3.67;;;3.30;;
43877;SDS011;29815;48.184;11.268;2022-08-19T11:47:25;3.65;;;3.00;;
43877;SDS011;29815;48.184;11.268;2022-08-19T11:49:54;3.30;;;2.65;;
43877;SDS011;29815;48.184;11.268;2022-08-19T11:52:24;3.97;;;3.03;;
43877;SDS011;29815;48.184;11.268;2022-08-19T11:54:55;4.30;;;2.95;;
43877;SDS011;29815;48.184;11.268;2022-08-19T11:57:24;4.72;;;3.47;;
43877;SDS011;29815;48.184;11.268;2022-08-19T11:59:54;4.80;;;4.18;;
43877;SDS011;29815;48.184;11.268;2022-08-19T12:02:24;4.88;;;4.30;;
43877;SDS011;29815;48.184;11.268;2022-08-19T12:04:53;5.68;;;5.07;;
43877;SDS011;29815;48.184;11.268;2022-08-19T12:07:23;5.57;;;4.97;;
43877;SDS011;29815;48.184;11.268;2022-08-19T12:09:52;4.80;;;4.20;;
43877;SDS011;29815;48.184;11.268;2022-08-19T12:12:24;5.68;;;5.07;;
43877;SDS011;29815;48.184;11.268;2022-08-19T12:14:54;5.55;;;4.40;;
43877;SDS011;29815;48.184;11.268;2022-08-19T12:17:26;4.95;;;4.45;;
43877;SDS011;29815;48.184;11.268;2022-08-19T12:19:56;5.60;;;5.10;;
43877;SDS011;29815;48.184;11.268;2022-08-19T12:22:25;5.80;;;5.15;;
43877;SDS011;29815;48.184;11.268;2022-08-19T12:24:56;6.18;;;5.15;;
43877;SDS011;29815;48.184;11.268;2022-08-19T12:27:26;6.00;;;5.45;;
43877;SDS011;29815;48.184;11.268;2022-08-19T12:30:07;6.40;;;4.40;;
43877;SDS011;29815;48.184;11.268;2022-08-19T12:32:40;4.93;;;4.43;;
43877;SDS011;29815;48.184;11.268;2022-08-19T12:35:10;4.15;;;3.75;;
43877;SDS011;29815;48.184;11.268;2022-08-19T12:37:39;4.22;;;3.80;;
43877;SDS011;29815;48.184;11.268;2022-08-19T12:40:24;5.50;;;4.40;;
43877;SDS011;29815;48.184;11.268;2022-08-19T12:42:54;4.60;;;4.20;;
43877;SDS011;29815;48.184;11.268;2022-08-19T12:45:23;4.93;;;4.43;;
43877;SDS011;29815;48.184;11.268;2022-08-19T12:47:53;5.95;;;4.28;;
43877;SDS011;29815;48.184;11.268;2022-08-19T12:50:23;5.72;;;4.65;;
43877;SDS011;29815;48.184;11.268;2022-08-19T12:52:52;4.13;;;3.55;;
43877;SDS011;29815;48.184;11.268;2022-08-19T12:55:22;5.25;;;3.83;;
43877;SDS011;29815;48.184;11.268;2022-08-19T12:57:55;3.70;;;3.40;;
43877;SDS011;29815;48.184;11.268;2022-08-19T13:00:25;7.35;;;3.22;;
43877;SDS011;29815;48.184;11.268;2022-08-19T13:02:54;4.22;;;3.70;;
43877;SDS011;29815;48.184;11.268;2022-08-19T13:05:25;4.38;;;3.72;;
43877;SDS011;29815;48.184;11.268;2022-08-19T13:07:59;4.25;;;3.85;;
43877;SDS011;29815;48.184;11.268;2022-08-19T13:10:31;5.03;;;4.43;;
43877;SDS011;29815;48.184;11.268;2022-08-19T13:13:05;4.93;;;3.95;;
43877;SDS011;29815;48.184;11.268;2022-08-19T13:15:38;5.43;;;4.10;;
43877;SDS011;29815;48.184;11.268;2022-08-19T13:18:11;5.05;;;4.53;;
43877;SDS011;29815;48.184;11.268;2022-08-19T13:20:43;7.35;;;4.85;;
43877;SDS011;29815;48.184;11.268;2022-08-19T13:23:19;5.90;;;5.30;;
43877;SDS011;29815;48.184;11.268;2022-08-19T13:25:56;5.55;;;5.05;;
43877;SDS011;29815;48.184;11.268;2022-08-19T13:28:26;6.20;;;5.53;;
43877;SDS011;29815;48.184;11.268;2022-08-19T13:31:16;4.47;;;3.90;;
43877;SDS011;29815;48.184;11.268;2022-08-19T13:34:05;4.85;;;3.40;;
43877;SDS011;29815;48.184;11.268;2022-08-19T13:36:36;3.85;;;3.33;;
43877;SDS011;29815;48.184;11.268;2022-08-19T13:39:06;3.40;;;3.05;;
43877;SDS011;29815;48.184;11.268;2022-08-19T13:41:42;3.65;;;3.05;;
43877;SDS011;29815;48.184;11.268;2022-08-19T13:44:16;3.10;;;2.80;;
43877;SDS011;29815;48.184;11.268;2022-08-19T13:46:47;3.10;;;2.67;;
43877;SDS011;29815;48.184;11.268;2022-08-19T13:49:20;2.88;;;2.60;;
43877;SDS011;29815;48.184;11.268;2022-08-19T13:51:50;3.97;;;3.28;;
43877;SDS011;29815;48.184;11.268;2022-08-19T13:54:20;4.68;;;2.97;;
43877;SDS011;29815;48.184;11.268;2022-08-19T13:56:50;2.53;;;2.25;;
43877;SDS011;29815;48.184;11.268;2022-08-19T13:59:20;3.53;;;2.75;;
43877;SDS011;29815;48.184;11.268;2022-08-19T14:01:49;2.97;;;2.67;;
43877;SDS011;29815;48.184;11.268;2022-08-19T14:04:19;3.33;;;2.92;;
43877;SDS011;29815;48.184;11.268;2022-08-19T14:06:48;3.30;;;2.92;;
43877;SDS011;29815;48.184;11.268;2022-08-19T14:09:18;3.88;;;3.47;;
43877;SDS011;29815;48.184;11.268;2022-08-19T14:11:47;4.13;;;3.72;;
43877;SDS011;29815;48.184;11.268;2022-08-19T14:14:19;6.18;;;3.20;;
43877;SDS011;29815;48.184;11.268;2022-08-19T14:16:49;4.10;;;3.40;;
43877;SDS011;29815;48.184;11.268;2022-08-19T14:19:19;3.90;;;3.50;;
43877;SDS011;29815;48.184;11.268;2022-08-19T14:21:49;4.00;;;3.35;;
43877;SDS011;29815;48.184;11.268;2022-08-19T14:24:19;4.20;;;3.65;;
43877;SDS011;29815;48.184;11.268;2022-08-19T14:26:48;3.80;;;3.45;;
43877;SDS011;29815;48.184;11.268;2022-08-19T14:29:19;4.43;;;4.03;;
43877;SDS011;29815;48.184;11.268;2022-08-19T14:31:49;3.78;;;3.38;;
43877;SDS011;29815;48.184;11.268;2022-08-19T14:34:18;4.45;;;3.70;;
43877;SDS011;29815;48.184;11.268;2022-08-19T14:36:49;4.85;;;3.65;;
43877;SDS011;29815;48.184;11.268;2022-08-19T14:39:18;7.35;;;4.00;;
43877;SDS011;29815;48.184;11.268;2022-08-19T14:41:48;4.57;;;3.97;;
43877;SDS011;29815;48.184;11.268;2022-08-19T14:44:18;4.90;;;4.13;;
43877;SDS011;29815;48.184;11.268;2022-08-19T14:46:49;7.43;;;4.25;;
43877;SDS011;29815;48.184;11.268;2022-08-19T14:49:20;5.07;;;4.60;;
43877;SDS011;29815;48.184;11.268;2022-08-19T14:52:02;5.05;;;4.53;;
43877;SDS011;29815;48.184;11.268;2022-08-19T14:54:32;5.43;;;4.93;;
43877;SDS011;29815;48.184;11.268;2022-08-19T14:57:02;6.88;;;6.13;;